sensor_id;sensor_type;location;lat;lon;timestamp;P1;durP1;ratioP1;P2;durP2;ratioP2
12271;SDS011;6198;51.446;6.698;2022-07-10T00:00:31;5.70;;;1.80;;
12271;SDS011;6198;51.446;6.698;2022-07-10T00:02:57;6.27;;;1.73;;
12271;SDS011;6198;51.446;6.698;2022-07-10T00:05:24;3.57;;;1.80;;
12271;SDS011;6198;51.446;6.698;2022-07-10T00:07:50;6.17;;;1.90;;
12271;SDS011;6198;51.446;6.698;2022-07-10T00:10:19;3.53;;;1.63;;
12271;SDS011;6198;51.446;6.698;2022-07-10T00:12:46;3.97;;;1.60;;
12271;SDS011;6198;51.446;6.698;2022-07-10T00:15:13;3.13;;;2.03;;
12271;SDS011;6198;51.446;6.698;2022-07-10T00:17:39;4.93;;;1.90;;
12271;SDS011;6198;51.446;6.698;2022-07-10T00:20:06;3.03;;;1.53;;
12271;SDS011;6198;51.446;6.698;2022-07-10T00:22:35;3.43;;;2.00;;
12271;SDS011;6198;51.446;6.698;2022-07-10T00:25:03;6.77;;;1.57;;
12271;SDS011;6198;51.446;6.698;2022-07-10T00:27:29;4.07;;;1.70;;
12271;SDS011;6198;51.446;6.698;2022-07-10T00:29:55;8.27;;;2.07;;
12271;SDS011;6198;51.446;6.698;2022-07-10T00:32:21;4.10;;;1.90;;
12271;SDS011;6198;51.446;6.698;2022-07-10T00:34:47;2.53;;;1.47;;
12271;SDS011;6198;51.446;6.698;2022-07-10T00:37:13;3.83;;;1.70;;
12271;SDS011;6198;51.446;6.698;2022-07-10T00:39:39;2.57;;;1.40;;
12271;SDS011;6198;51.446;6.698;2022-07-10T00:42:11;2.73;;;1.77;;
12271;SDS011;6198;51.446;6.698;2022-07-10T00:44:38;3.50;;;1.70;;
12271;SDS011;6198;51.446;6.698;2022-07-10T00:47:05;4.57;;;1.63;;
12271;SDS011;6198;51.446;6.698;2022-07-10T00:49:31;2.47;;;1.67;;
12271;SDS011;6198;51.446;6.698;2022-07-10T00:51:57;2.60;;;1.73;;
12271;SDS011;6198;51.446;6.698;2022-07-10T00:54:25;4.77;;;1.83;;
12271;SDS011;6198;51.446;6.698;2022-07-10T00:56:51;8.33;;;1.93;;
12271;SDS011;6198;51.446;6.698;2022-07-10T00:59:18;3.50;;;1.60;;
12271;SDS011;6198;51.446;6.698;2022-07-10T01:01:45;6.03;;;1.63;;
12271;SDS011;6198;51.446;6.698;2022-07-10T01:04:11;3.73;;;1.60;;
12271;SDS011;6198;51.446;6.698;2022-07-10T01:06:37;6.03;;;1.80;;
12271;SDS011;6198;51.446;6.698;2022-07-10T01:09:03;5.27;;;1.30;;
12271;SDS011;6198;51.446;6.698;2022-07-10T01:11:29;5.57;;;1.90;;
12271;SDS011;6198;51.446;6.698;2022-07-10T01:13:55;4.10;;;1.50;;
12271;SDS011;6198;51.446;6.698;2022-07-10T01:16:21;3.63;;;1.63;;
12271;SDS011;6198;51.446;6.698;2022-07-10T01:18:47;1.57;;;1.23;;
12271;SDS011;6198;51.446;6.698;2022-07-10T01:21:30;5.30;;;1.57;;
12271;SDS011;6198;51.446;6.698;2022-07-10T01:23:56;2.57;;;1.70;;
12271;SDS011;6198;51.446;6.698;2022-07-10T01:26:23;2.33;;;1.50;;
12271;SDS011;6198;51.446;6.698;2022-07-10T01:28:49;1.90;;;1.47;;
12271;SDS011;6198;51.446;6.698;2022-07-10T01:31:25;5.20;;;1.90;;
12271;SDS011;6198;51.446;6.698;2022-07-10T01:33:52;5.87;;;1.73;;
12271;SDS011;6198;51.446;6.698;2022-07-10T01:36:19;2.17;;;1.33;;
12271;SDS011;6198;51.446;6.698;2022-07-10T01:38:45;3.20;;;1.90;;
12271;SDS011;6198;51.446;6.698;2022-07-10T01:41:11;3.03;;;1.50;;
12271;SDS011;6198;51.446;6.698;2022-07-10T01:43:37;4.40;;;1.60;;
12271;SDS011;6198;51.446;6.698;2022-07-10T01:46:07;3.20;;;1.43;;
12271;SDS011;6198;51.446;6.698;2022-07-10T01:48:36;4.20;;;1.50;;
12271;SDS011;6198;51.446;6.698;2022-07-10T01:51:02;5.40;;;1.80;;
12271;SDS011;6198;51.446;6.698;2022-07-10T01:53:28;4.40;;;1.60;;
12271;SDS011;6198;51.446;6.698;2022-07-10T01:55:54;5.10;;;1.93;;
12271;SDS011;6198;51.446;6.698;2022-07-10T01:58:20;2.40;;;1.40;;
12271;SDS011;6198;51.446;6.698;2022-07-10T02:00:46;4.30;;;1.83;;
12271;SDS011;6198;51.446;6.698;2022-07-10T02:03:12;7.03;;;1.60;;
12271;SDS011;6198;51.446;6.698;2022-07-10T02:05:57;4.90;;;1.60;;
12271;SDS011;6198;51.446;6.698;2022-07-10T02:08:23;5.13;;;1.77;;
12271;SDS011;6198;51.446;6.698;2022-07-10T02:10:49;3.23;;;1.90;;
12271;SDS011;6198;51.446;6.698;2022-07-10T02:13:15;4.87;;;2.07;;
12271;SDS011;6198;51.446;6.698;2022-07-10T02:15:45;4.33;;;1.73;;
12271;SDS011;6198;51.446;6.698;2022-07-10T02:18:10;2.17;;;1.47;;
12271;SDS011;6198;51.446;6.698;2022-07-10T02:20:36;3.73;;;1.60;;
12271;SDS011;6198;51.446;6.698;2022-07-10T02:23:02;3.67;;;1.67;;
12271;SDS011;6198;51.446;6.698;2022-07-10T02:25:28;3.73;;;2.00;;
12271;SDS011;6198;51.446;6.698;2022-07-10T02:27:54;4.47;;;1.57;;
12271;SDS011;6198;51.446;6.698;2022-07-10T02:30:20;3.37;;;1.63;;
12271;SDS011;6198;51.446;6.698;2022-07-10T02:32:46;1.43;;;1.33;;
12271;SDS011;6198;51.446;6.698;2022-07-10T02:35:12;2.90;;;1.70;;
12271;SDS011;6198;51.446;6.698;2022-07-10T02:37:38;5.23;;;2.07;;
12271;SDS011;6198;51.446;6.698;2022-07-10T02:40:04;3.80;;;1.70;;
12271;SDS011;6198;51.446;6.698;2022-07-10T02:42:30;1.87;;;1.60;;
12271;SDS011;6198;51.446;6.698;2022-07-10T02:44:56;2.33;;;1.50;;
12271;SDS011;6198;51.446;6.698;2022-07-10T02:47:22;1.50;;;1.40;;
12271;SDS011;6198;51.446;6.698;2022-07-10T02:49:48;4.20;;;1.60;;
12271;SDS011;6198;51.446;6.698;2022-07-10T02:52:14;3.63;;;1.60;;
12271;SDS011;6198;51.446;6.698;2022-07-10T02:54:40;4.33;;;1.87;;
12271;SDS011;6198;51.446;6.698;2022-07-10T02:57:06;4.03;;;1.87;;
12271;SDS011;6198;51.446;6.698;2022-07-10T02:59:32;4.00;;;1.90;;
12271;SDS011;6198;51.446;6.698;2022-07-10T03:01:58;4.87;;;2.20;;
12271;SDS011;6198;51.446;6.698;2022-07-10T03:04:24;2.57;;;1.70;;
12271;SDS011;6198;51.446;6.698;2022-07-10T03:06:50;3.37;;;2.00;;
12271;SDS011;6198;51.446;6.698;2022-07-10T03:09:16;3.90;;;1.77;;
12271;SDS011;6198;51.446;6.698;2022-07-10T03:11:42;5.60;;;2.10;;
12271;SDS011;6198;51.446;6.698;2022-07-10T03:14:08;6.23;;;2.60;;
12271;SDS011;6198;51.446;6.698;2022-07-10T03:16:34;2.93;;;1.77;;
12271;SDS011;6198;51.446;6.698;2022-07-10T03:19:00;11.07;;;2.30;;
12271;SDS011;6198;51.446;6.698;2022-07-10T03:21:26;4.50;;;2.13;;
12271;SDS011;6198;51.446;6.698;2022-07-10T03:23:52;3.97;;;2.43;;
12271;SDS011;6198;51.446;6.698;2022-07-10T03:26:18;6.33;;;2.20;;
12271;SDS011;6198;51.446;6.698;2022-07-10T03:28:44;3.37;;;1.90;;
12271;SDS011;6198;51.446;6.698;2022-07-10T03:31:10;4.93;;;2.10;;
12271;SDS011;6198;51.446;6.698;2022-07-10T03:33:36;5.30;;;2.33;;
12271;SDS011;6198;51.446;6.698;2022-07-10T03:36:04;7.47;;;2.07;;
12271;SDS011;6198;51.446;6.698;2022-07-10T03:38:30;5.00;;;2.20;;
12271;SDS011;6198;51.446;6.698;2022-07-10T03:40:56;4.77;;;2.10;;
12271;SDS011;6198;51.446;6.698;2022-07-10T03:43:22;3.50;;;1.80;;
12271;SDS011;6198;51.446;6.698;2022-07-10T03:45:49;6.17;;;1.83;;
12271;SDS011;6198;51.446;6.698;2022-07-10T03:48:15;3.57;;;1.97;;
12271;SDS011;6198;51.446;6.698;2022-07-10T03:50:41;4.50;;;1.97;;
12271;SDS011;6198;51.446;6.698;2022-07-10T03:53:07;6.63;;;2.10;;
12271;SDS011;6198;51.446;6.698;2022-07-10T03:55:33;5.03;;;2.17;;
12271;SDS011;6198;51.446;6.698;2022-07-10T03:57:59;4.37;;;1.93;;
12271;SDS011;6198;51.446;6.698;2022-07-10T04:00:28;4.17;;;2.10;;
12271;SDS011;6198;51.446;6.698;2022-07-10T04:02:57;5.40;;;2.03;;
12271;SDS011;6198;51.446;6.698;2022-07-10T04:05:23;6.20;;;2.20;;
12271;SDS011;6198;51.446;6.698;2022-07-10T04:07:49;4.70;;;2.07;;
12271;SDS011;6198;51.446;6.698;2022-07-10T04:10:15;4.37;;;1.90;;
12271;SDS011;6198;51.446;6.698;2022-07-10T04:12:41;5.57;;;1.97;;
12271;SDS011;6198;51.446;6.698;2022-07-10T04:15:07;5.17;;;2.50;;
12271;SDS011;6198;51.446;6.698;2022-07-10T04:17:34;4.27;;;2.47;;
12271;SDS011;6198;51.446;6.698;2022-07-10T04:20:00;3.77;;;2.30;;
12271;SDS011;6198;51.446;6.698;2022-07-10T04:22:26;7.13;;;3.37;;
12271;SDS011;6198;51.446;6.698;2022-07-10T04:24:53;6.67;;;2.90;;
12271;SDS011;6198;51.446;6.698;2022-07-10T04:27:19;8.33;;;3.30;;
12271;SDS011;6198;51.446;6.698;2022-07-10T04:29:45;9.57;;;3.03;;
12271;SDS011;6198;51.446;6.698;2022-07-10T04:32:11;5.30;;;2.77;;
12271;SDS011;6198;51.446;6.698;2022-07-10T04:34:37;5.77;;;3.20;;
12271;SDS011;6198;51.446;6.698;2022-07-10T04:37:04;3.60;;;2.30;;
12271;SDS011;6198;51.446;6.698;2022-07-10T04:39:30;5.77;;;2.50;;
12271;SDS011;6198;51.446;6.698;2022-07-10T04:41:56;13.27;;;2.83;;
12271;SDS011;6198;51.446;6.698;2022-07-10T04:44:22;3.30;;;2.10;;
12271;SDS011;6198;51.446;6.698;2022-07-10T04:46:48;5.23;;;2.50;;
12271;SDS011;6198;51.446;6.698;2022-07-10T04:49:13;4.27;;;2.10;;
12271;SDS011;6198;51.446;6.698;2022-07-10T04:51:39;4.83;;;2.83;;
12271;SDS011;6198;51.446;6.698;2022-07-10T04:54:06;4.60;;;2.20;;
12271;SDS011;6198;51.446;6.698;2022-07-10T04:56:32;3.03;;;2.30;;
12271;SDS011;6198;51.446;6.698;2022-07-10T04:58:58;2.97;;;2.23;;
12271;SDS011;6198;51.446;6.698;2022-07-10T05:01:24;4.13;;;2.47;;
12271;SDS011;6198;51.446;6.698;2022-07-10T05:03:50;5.80;;;3.00;;
12271;SDS011;6198;51.446;6.698;2022-07-10T05:06:16;4.67;;;2.43;;
12271;SDS011;6198;51.446;6.698;2022-07-10T05:08:42;4.93;;;2.30;;
12271;SDS011;6198;51.446;6.698;2022-07-10T05:11:08;3.33;;;1.83;;
12271;SDS011;6198;51.446;6.698;2022-07-10T05:13:34;3.43;;;2.30;;
12271;SDS011;6198;51.446;6.698;2022-07-10T05:16:00;3.10;;;1.90;;
12271;SDS011;6198;51.446;6.698;2022-07-10T05:18:26;2.40;;;1.90;;
12271;SDS011;6198;51.446;6.698;2022-07-10T05:20:52;4.43;;;1.90;;
12271;SDS011;6198;51.446;6.698;2022-07-10T05:23:18;2.37;;;2.00;;
12271;SDS011;6198;51.446;6.698;2022-07-10T05:25:44;3.47;;;2.27;;
12271;SDS011;6198;51.446;6.698;2022-07-10T05:28:10;4.30;;;2.30;;
12271;SDS011;6198;51.446;6.698;2022-07-10T05:30:39;3.67;;;2.03;;
12271;SDS011;6198;51.446;6.698;2022-07-10T05:33:05;5.07;;;2.20;;
12271;SDS011;6198;51.446;6.698;2022-07-10T05:35:31;3.83;;;2.37;;
12271;SDS011;6198;51.446;6.698;2022-07-10T05:37:57;5.23;;;2.17;;
12271;SDS011;6198;51.446;6.698;2022-07-10T05:40:23;3.63;;;1.97;;
12271;SDS011;6198;51.446;6.698;2022-07-10T05:42:49;1.70;;;1.60;;
12271;SDS011;6198;51.446;6.698;2022-07-10T05:45:15;3.77;;;2.43;;
12271;SDS011;6198;51.446;6.698;2022-07-10T05:47:41;7.17;;;3.07;;
12271;SDS011;6198;51.446;6.698;2022-07-10T05:50:07;7.87;;;2.40;;
12271;SDS011;6198;51.446;6.698;2022-07-10T05:52:33;5.40;;;2.27;;
12271;SDS011;6198;51.446;6.698;2022-07-10T05:54:59;5.23;;;2.03;;
12271;SDS011;6198;51.446;6.698;2022-07-10T05:57:25;5.57;;;2.30;;
12271;SDS011;6198;51.446;6.698;2022-07-10T05:59:51;4.37;;;2.00;;
12271;SDS011;6198;51.446;6.698;2022-07-10T06:02:17;7.23;;;2.33;;
12271;SDS011;6198;51.446;6.698;2022-07-10T06:04:44;3.57;;;2.03;;
12271;SDS011;6198;51.446;6.698;2022-07-10T06:07:10;5.33;;;3.00;;
12271;SDS011;6198;51.446;6.698;2022-07-10T06:09:36;7.20;;;2.50;;
12271;SDS011;6198;51.446;6.698;2022-07-10T06:12:02;4.07;;;2.00;;
12271;SDS011;6198;51.446;6.698;2022-07-10T06:14:28;5.43;;;2.30;;
12271;SDS011;6198;51.446;6.698;2022-07-10T06:16:54;2.33;;;2.07;;
12271;SDS011;6198;51.446;6.698;2022-07-10T06:19:20;3.17;;;1.90;;
12271;SDS011;6198;51.446;6.698;2022-07-10T06:21:46;5.50;;;2.00;;
12271;SDS011;6198;51.446;6.698;2022-07-10T06:24:12;4.47;;;1.90;;
12271;SDS011;6198;51.446;6.698;2022-07-10T06:26:38;3.97;;;2.40;;
12271;SDS011;6198;51.446;6.698;2022-07-10T06:29:04;5.93;;;2.27;;
12271;SDS011;6198;51.446;6.698;2022-07-10T06:31:30;3.87;;;1.90;;
12271;SDS011;6198;51.446;6.698;2022-07-10T06:33:56;5.37;;;2.00;;
12271;SDS011;6198;51.446;6.698;2022-07-10T06:36:22;5.57;;;1.93;;
12271;SDS011;6198;51.446;6.698;2022-07-10T06:38:48;6.37;;;2.23;;
12271;SDS011;6198;51.446;6.698;2022-07-10T06:41:14;2.67;;;1.70;;
12271;SDS011;6198;51.446;6.698;2022-07-10T06:43:40;4.00;;;1.97;;
12271;SDS011;6198;51.446;6.698;2022-07-10T06:46:06;4.33;;;1.70;;
12271;SDS011;6198;51.446;6.698;2022-07-10T06:48:32;9.17;;;2.80;;
12271;SDS011;6198;51.446;6.698;2022-07-10T06:51:00;5.60;;;1.80;;
12271;SDS011;6198;51.446;6.698;2022-07-10T06:53:26;5.57;;;2.30;;
12271;SDS011;6198;51.446;6.698;2022-07-10T06:55:53;3.77;;;1.93;;
12271;SDS011;6198;51.446;6.698;2022-07-10T06:58:19;5.67;;;1.97;;
12271;SDS011;6198;51.446;6.698;2022-07-10T07:00:45;3.57;;;2.00;;
12271;SDS011;6198;51.446;6.698;2022-07-10T07:03:11;5.17;;;2.00;;
12271;SDS011;6198;51.446;6.698;2022-07-10T07:05:37;3.90;;;2.27;;
12271;SDS011;6198;51.446;6.698;2022-07-10T07:08:03;8.43;;;2.20;;
12271;SDS011;6198;51.446;6.698;2022-07-10T07:10:29;5.00;;;2.03;;
12271;SDS011;6198;51.446;6.698;2022-07-10T07:12:55;5.30;;;1.70;;
12271;SDS011;6198;51.446;6.698;2022-07-10T07:15:21;3.87;;;1.83;;
12271;SDS011;6198;51.446;6.698;2022-07-10T07:17:48;5.17;;;2.03;;
12271;SDS011;6198;51.446;6.698;2022-07-10T07:20:36;6.10;;;2.07;;
12271;SDS011;6198;51.446;6.698;2022-07-10T07:23:21;5.40;;;2.20;;
12271;SDS011;6198;51.446;6.698;2022-07-10T07:25:47;6.50;;;2.40;;
12271;SDS011;6198;51.446;6.698;2022-07-10T07:28:17;3.27;;;1.87;;
12271;SDS011;6198;51.446;6.698;2022-07-10T07:30:46;5.90;;;2.20;;
12271;SDS011;6198;51.446;6.698;2022-07-10T07:33:13;4.47;;;2.20;;
12271;SDS011;6198;51.446;6.698;2022-07-10T07:35:39;4.30;;;2.17;;
12271;SDS011;6198;51.446;6.698;2022-07-10T07:38:05;5.17;;;1.80;;
12271;SDS011;6198;51.446;6.698;2022-07-10T07:40:31;3.63;;;1.77;;
12271;SDS011;6198;51.446;6.698;2022-07-10T07:42:57;8.63;;;2.33;;
12271;SDS011;6198;51.446;6.698;2022-07-10T07:45:24;4.73;;;1.97;;
12271;SDS011;6198;51.446;6.698;2022-07-10T07:47:51;6.17;;;1.90;;
12271;SDS011;6198;51.446;6.698;2022-07-10T07:50:18;5.93;;;2.30;;
12271;SDS011;6198;51.446;6.698;2022-07-10T07:52:44;4.07;;;2.10;;
12271;SDS011;6198;51.446;6.698;2022-07-10T07:55:10;3.63;;;1.97;;
12271;SDS011;6198;51.446;6.698;2022-07-10T07:57:36;4.37;;;2.30;;
12271;SDS011;6198;51.446;6.698;2022-07-10T08:00:03;7.30;;;3.00;;
12271;SDS011;6198;51.446;6.698;2022-07-10T08:02:30;5.97;;;2.80;;
12271;SDS011;6198;51.446;6.698;2022-07-10T08:04:56;8.20;;;2.67;;
12271;SDS011;6198;51.446;6.698;2022-07-10T08:07:22;2.60;;;1.83;;
12271;SDS011;6198;51.446;6.698;2022-07-10T08:09:48;6.67;;;2.70;;
12271;SDS011;6198;51.446;6.698;2022-07-10T08:12:14;8.47;;;2.83;;
12271;SDS011;6198;51.446;6.698;2022-07-10T08:14:40;3.27;;;2.13;;
12271;SDS011;6198;51.446;6.698;2022-07-10T08:17:06;3.77;;;2.10;;
12271;SDS011;6198;51.446;6.698;2022-07-10T08:19:32;6.10;;;2.17;;
12271;SDS011;6198;51.446;6.698;2022-07-10T08:21:58;4.00;;;2.23;;
12271;SDS011;6198;51.446;6.698;2022-07-10T08:24:24;2.77;;;2.30;;
12271;SDS011;6198;51.446;6.698;2022-07-10T08:26:50;6.80;;;2.10;;
12271;SDS011;6198;51.446;6.698;2022-07-10T08:29:16;2.83;;;2.17;;
12271;SDS011;6198;51.446;6.698;2022-07-10T08:31:43;5.10;;;2.57;;
12271;SDS011;6198;51.446;6.698;2022-07-10T08:34:09;7.77;;;2.53;;
12271;SDS011;6198;51.446;6.698;2022-07-10T08:36:35;4.20;;;2.47;;
12271;SDS011;6198;51.446;6.698;2022-07-10T08:39:01;7.77;;;3.17;;
12271;SDS011;6198;51.446;6.698;2022-07-10T08:41:27;4.00;;;2.60;;
12271;SDS011;6198;51.446;6.698;2022-07-10T08:43:53;8.17;;;2.50;;
12271;SDS011;6198;51.446;6.698;2022-07-10T08:46:19;3.10;;;2.27;;
12271;SDS011;6198;51.446;6.698;2022-07-10T08:48:48;6.03;;;2.30;;
12271;SDS011;6198;51.446;6.698;2022-07-10T08:51:21;6.00;;;2.30;;
12271;SDS011;6198;51.446;6.698;2022-07-10T08:53:48;4.93;;;2.50;;
12271;SDS011;6198;51.446;6.698;2022-07-10T08:56:15;4.60;;;2.37;;
12271;SDS011;6198;51.446;6.698;2022-07-10T08:58:41;7.13;;;2.60;;
12271;SDS011;6198;51.446;6.698;2022-07-10T09:01:08;4.80;;;2.30;;
12271;SDS011;6198;51.446;6.698;2022-07-10T09:03:34;3.87;;;2.60;;
12271;SDS011;6198;51.446;6.698;2022-07-10T09:06:02;4.37;;;2.50;;
12271;SDS011;6198;51.446;6.698;2022-07-10T09:08:30;5.00;;;2.53;;
12271;SDS011;6198;51.446;6.698;2022-07-10T09:11:13;5.23;;;2.30;;
12271;SDS011;6198;51.446;6.698;2022-07-10T09:13:52;3.20;;;2.60;;
12271;SDS011;6198;51.446;6.698;2022-07-10T09:16:22;4.37;;;2.50;;
12271;SDS011;6198;51.446;6.698;2022-07-10T09:18:48;4.27;;;2.67;;
12271;SDS011;6198;51.446;6.698;2022-07-10T09:21:14;7.57;;;3.03;;
12271;SDS011;6198;51.446;6.698;2022-07-10T09:23:41;3.63;;;2.57;;
12271;SDS011;6198;51.446;6.698;2022-07-10T09:26:07;8.30;;;3.33;;
12271;SDS011;6198;51.446;6.698;2022-07-10T09:28:33;5.80;;;3.13;;
12271;SDS011;6198;51.446;6.698;2022-07-10T09:30:58;8.27;;;3.57;;
12271;SDS011;6198;51.446;6.698;2022-07-10T09:33:25;7.13;;;3.53;;
12271;SDS011;6198;51.446;6.698;2022-07-10T09:35:55;6.13;;;3.40;;
12271;SDS011;6198;51.446;6.698;2022-07-10T09:41:12;2.17;;;1.97;;
12271;SDS011;6198;51.446;6.698;2022-07-10T09:46:10;3.07;;;2.20;;
12271;SDS011;6198;51.446;6.698;2022-07-10T09:48:36;2.97;;;2.07;;
12271;SDS011;6198;51.446;6.698;2022-07-10T09:51:03;2.20;;;1.80;;
12271;SDS011;6198;51.446;6.698;2022-07-10T09:53:31;1.97;;;1.80;;
12271;SDS011;6198;51.446;6.698;2022-07-10T09:55:59;2.57;;;1.70;;
12271;SDS011;6198;51.446;6.698;2022-07-10T09:58:27;1.60;;;1.50;;
12271;SDS011;6198;51.446;6.698;2022-07-10T10:00:55;3.10;;;2.00;;
12271;SDS011;6198;51.446;6.698;2022-07-10T10:03:22;1.77;;;1.37;;
12271;SDS011;6198;51.446;6.698;2022-07-10T10:05:55;1.70;;;1.60;;
12271;SDS011;6198;51.446;6.698;2022-07-10T10:08:25;1.87;;;1.60;;
12271;SDS011;6198;51.446;6.698;2022-07-10T10:10:53;2.13;;;1.50;;
12271;SDS011;6198;51.446;6.698;2022-07-10T10:13:22;2.43;;;2.07;;
12271;SDS011;6198;51.446;6.698;2022-07-10T10:15:51;2.00;;;1.83;;
12271;SDS011;6198;51.446;6.698;2022-07-10T10:18:22;2.07;;;1.90;;
12271;SDS011;6198;51.446;6.698;2022-07-10T10:20:48;2.10;;;1.90;;
12271;SDS011;6198;51.446;6.698;2022-07-10T10:23:15;3.90;;;1.80;;
12271;SDS011;6198;51.446;6.698;2022-07-10T10:25:51;3.93;;;2.00;;
12271;SDS011;6198;51.446;6.698;2022-07-10T10:28:17;1.77;;;1.53;;
12271;SDS011;6198;51.446;6.698;2022-07-10T10:30:52;1.63;;;1.53;;
12271;SDS011;6198;51.446;6.698;2022-07-10T10:36:02;3.03;;;1.67;;
12271;SDS011;6198;51.446;6.698;2022-07-10T10:41:26;3.73;;;1.60;;
12271;SDS011;6198;51.446;6.698;2022-07-10T10:49:21;1.77;;;1.67;;
12271;SDS011;6198;51.446;6.698;2022-07-10T10:57:17;2.10;;;2.00;;
12271;SDS011;6198;51.446;6.698;2022-07-10T10:59:50;2.40;;;2.00;;
12271;SDS011;6198;51.446;6.698;2022-07-10T11:02:29;2.93;;;2.47;;
12271;SDS011;6198;51.446;6.698;2022-07-10T11:05:38;3.90;;;2.40;;
12271;SDS011;6198;51.446;6.698;2022-07-10T11:07:57;4.47;;;2.67;;
12271;SDS011;6198;51.446;6.698;2022-07-10T11:12:59;4.00;;;3.03;;
12271;SDS011;6198;51.446;6.698;2022-07-10T11:15:26;3.53;;;2.70;;
12271;SDS011;6198;51.446;6.698;2022-07-10T11:17:55;3.10;;;2.50;;
12271;SDS011;6198;51.446;6.698;2022-07-10T11:20:21;4.20;;;2.90;;
12271;SDS011;6198;51.446;6.698;2022-07-10T11:23:04;2.70;;;2.40;;
12271;SDS011;6198;51.446;6.698;2022-07-10T11:25:38;3.00;;;2.43;;
12271;SDS011;6198;51.446;6.698;2022-07-10T11:28:10;5.23;;;2.30;;
12271;SDS011;6198;51.446;6.698;2022-07-10T11:31:13;2.30;;;2.10;;
12271;SDS011;6198;51.446;6.698;2022-07-10T11:33:39;2.47;;;2.27;;
12271;SDS011;6198;51.446;6.698;2022-07-10T11:36:09;2.33;;;1.90;;
12271;SDS011;6198;51.446;6.698;2022-07-10T11:38:36;3.33;;;2.00;;
12271;SDS011;6198;51.446;6.698;2022-07-10T11:41:03;5.17;;;2.10;;
12271;SDS011;6198;51.446;6.698;2022-07-10T11:43:29;4.23;;;2.53;;
12271;SDS011;6198;51.446;6.698;2022-07-10T11:45:55;5.70;;;2.53;;
12271;SDS011;6198;51.446;6.698;2022-07-10T11:48:25;7.63;;;2.40;;
12271;SDS011;6198;51.446;6.698;2022-07-10T11:50:51;4.77;;;2.33;;
12271;SDS011;6198;51.446;6.698;2022-07-10T11:53:24;3.80;;;2.63;;
12271;SDS011;6198;51.446;6.698;2022-07-10T11:55:50;4.10;;;2.70;;
12271;SDS011;6198;51.446;6.698;2022-07-10T11:58:17;6.43;;;2.80;;
12271;SDS011;6198;51.446;6.698;2022-07-10T12:00:43;6.03;;;2.67;;
12271;SDS011;6198;51.446;6.698;2022-07-10T12:03:19;5.70;;;3.27;;
12271;SDS011;6198;51.446;6.698;2022-07-10T12:08:11;5.53;;;3.22;;
12271;SDS011;6198;51.446;6.698;2022-07-10T12:10:38;6.83;;;2.87;;
12271;SDS011;6198;51.446;6.698;2022-07-10T12:13:10;12.00;;;3.20;;
12271;SDS011;6198;51.446;6.698;2022-07-10T12:15:45;7.53;;;3.20;;
12271;SDS011;6198;51.446;6.698;2022-07-10T12:18:15;4.00;;;2.70;;
12271;SDS011;6198;51.446;6.698;2022-07-10T12:20:43;5.50;;;2.80;;
12271;SDS011;6198;51.446;6.698;2022-07-10T12:23:12;5.33;;;2.90;;
12271;SDS011;6198;51.446;6.698;2022-07-10T12:25:41;4.33;;;2.90;;
12271;SDS011;6198;51.446;6.698;2022-07-10T12:28:07;6.83;;;3.30;;
12271;SDS011;6198;51.446;6.698;2022-07-10T12:30:40;10.10;;;3.67;;
12271;SDS011;6198;51.446;6.698;2022-07-10T12:33:13;4.43;;;2.97;;
12271;SDS011;6198;51.446;6.698;2022-07-10T12:35:55;6.73;;;2.57;;
12271;SDS011;6198;51.446;6.698;2022-07-10T12:38:25;3.73;;;2.90;;
12271;SDS011;6198;51.446;6.698;2022-07-10T12:41:05;8.87;;;2.93;;
12271;SDS011;6198;51.446;6.698;2022-07-10T12:43:32;6.07;;;2.60;;
12271;SDS011;6198;51.446;6.698;2022-07-10T12:46:17;5.90;;;2.43;;
12271;SDS011;6198;51.446;6.698;2022-07-10T12:49:00;3.97;;;2.27;;
12271;SDS011;6198;51.446;6.698;2022-07-10T12:51:27;6.43;;;2.30;;
12271;SDS011;6198;51.446;6.698;2022-07-10T12:53:53;4.47;;;2.37;;
12271;SDS011;6198;51.446;6.698;2022-07-10T12:56:36;6.17;;;2.60;;
12271;SDS011;6198;51.446;6.698;2022-07-10T12:59:12;3.67;;;2.47;;
12271;SDS011;6198;51.446;6.698;2022-07-10T13:01:42;4.80;;;2.47;;
12271;SDS011;6198;51.446;6.698;2022-07-10T13:04:09;4.27;;;2.30;;
12271;SDS011;6198;51.446;6.698;2022-07-10T13:06:35;4.10;;;2.40;;
12271;SDS011;6198;51.446;6.698;2022-07-10T13:09:02;2.93;;;2.10;;
12271;SDS011;6198;51.446;6.698;2022-07-10T13:11:28;3.47;;;2.07;;
12271;SDS011;6198;51.446;6.698;2022-07-10T13:13:54;4.93;;;2.00;;
12271;SDS011;6198;51.446;6.698;2022-07-10T13:16:21;3.43;;;2.10;;
12271;SDS011;6198;51.446;6.698;2022-07-10T13:18:47;3.20;;;1.90;;
12271;SDS011;6198;51.446;6.698;2022-07-10T13:21:13;3.03;;;2.23;;
12271;SDS011;6198;51.446;6.698;2022-07-10T13:23:39;2.43;;;1.93;;
12271;SDS011;6198;51.446;6.698;2022-07-10T13:26:07;3.20;;;1.50;;
12271;SDS011;6198;51.446;6.698;2022-07-10T13:28:33;3.00;;;1.97;;
12271;SDS011;6198;51.446;6.698;2022-07-10T13:30:59;1.90;;;1.70;;
12271;SDS011;6198;51.446;6.698;2022-07-10T13:33:25;2.13;;;1.90;;
12271;SDS011;6198;51.446;6.698;2022-07-10T13:35:52;5.43;;;2.27;;
12271;SDS011;6198;51.446;6.698;2022-07-10T13:38:19;2.00;;;1.70;;
12271;SDS011;6198;51.446;6.698;2022-07-10T13:40:45;1.73;;;1.60;;
12271;SDS011;6198;51.446;6.698;2022-07-10T13:43:12;4.53;;;2.03;;
12271;SDS011;6198;51.446;6.698;2022-07-10T13:45:38;2.67;;;1.70;;
12271;SDS011;6198;51.446;6.698;2022-07-10T13:48:11;1.80;;;1.70;;
12271;SDS011;6198;51.446;6.698;2022-07-10T13:50:37;3.50;;;1.77;;
12271;SDS011;6198;51.446;6.698;2022-07-10T13:53:03;3.23;;;2.10;;
12271;SDS011;6198;51.446;6.698;2022-07-10T13:55:29;4.20;;;2.03;;
12271;SDS011;6198;51.446;6.698;2022-07-10T13:57:55;4.33;;;2.03;;
12271;SDS011;6198;51.446;6.698;2022-07-10T14:00:21;2.23;;;1.70;;
12271;SDS011;6198;51.446;6.698;2022-07-10T14:02:47;2.17;;;1.53;;
12271;SDS011;6198;51.446;6.698;2022-07-10T14:05:13;2.70;;;1.80;;
12271;SDS011;6198;51.446;6.698;2022-07-10T14:07:39;3.23;;;1.93;;
12271;SDS011;6198;51.446;6.698;2022-07-10T14:10:05;2.60;;;1.90;;
12271;SDS011;6198;51.446;6.698;2022-07-10T14:12:32;3.83;;;1.90;;
12271;SDS011;6198;51.446;6.698;2022-07-10T14:14:58;1.70;;;1.40;;
12271;SDS011;6198;51.446;6.698;2022-07-10T14:17:25;3.43;;;1.70;;
12271;SDS011;6198;51.446;6.698;2022-07-10T14:19:51;1.90;;;1.60;;
12271;SDS011;6198;51.446;6.698;2022-07-10T14:22:17;3.93;;;1.77;;
12271;SDS011;6198;51.446;6.698;2022-07-10T14:24:43;1.90;;;1.60;;
12271;SDS011;6198;51.446;6.698;2022-07-10T14:27:09;3.83;;;2.30;;
12271;SDS011;6198;51.446;6.698;2022-07-10T14:29:35;2.30;;;1.67;;
12271;SDS011;6198;51.446;6.698;2022-07-10T14:32:01;2.60;;;1.80;;
12271;SDS011;6198;51.446;6.698;2022-07-10T14:34:28;2.20;;;1.90;;
12271;SDS011;6198;51.446;6.698;2022-07-10T14:36:54;5.10;;;1.90;;
12271;SDS011;6198;51.446;6.698;2022-07-10T14:39:20;4.20;;;1.63;;
12271;SDS011;6198;51.446;6.698;2022-07-10T14:41:46;3.60;;;1.77;;
12271;SDS011;6198;51.446;6.698;2022-07-10T14:44:12;4.30;;;2.03;;
12271;SDS011;6198;51.446;6.698;2022-07-10T14:46:38;3.40;;;1.70;;
12271;SDS011;6198;51.446;6.698;2022-07-10T14:49:04;1.93;;;1.73;;
12271;SDS011;6198;51.446;6.698;2022-07-10T14:51:30;3.27;;;1.60;;
12271;SDS011;6198;51.446;6.698;2022-07-10T14:53:56;3.70;;;1.77;;
12271;SDS011;6198;51.446;6.698;2022-07-10T14:56:22;2.33;;;1.90;;
12271;SDS011;6198;51.446;6.698;2022-07-10T14:58:49;1.93;;;1.50;;
12271;SDS011;6198;51.446;6.698;2022-07-10T15:01:15;3.23;;;1.60;;
12271;SDS011;6198;51.446;6.698;2022-07-10T15:03:41;3.37;;;1.97;;
12271;SDS011;6198;51.446;6.698;2022-07-10T15:06:07;3.50;;;1.60;;
12271;SDS011;6198;51.446;6.698;2022-07-10T15:08:33;2.47;;;1.53;;
12271;SDS011;6198;51.446;6.698;2022-07-10T15:10:59;2.17;;;1.93;;
12271;SDS011;6198;51.446;6.698;2022-07-10T15:13:26;2.83;;;2.03;;
12271;SDS011;6198;51.446;6.698;2022-07-10T15:15:52;2.07;;;1.70;;
12271;SDS011;6198;51.446;6.698;2022-07-10T15:18:19;2.67;;;1.70;;
12271;SDS011;6198;51.446;6.698;2022-07-10T15:20:45;5.43;;;1.90;;
12271;SDS011;6198;51.446;6.698;2022-07-10T15:23:12;2.10;;;1.73;;
12271;SDS011;6198;51.446;6.698;2022-07-10T15:25:38;2.47;;;1.80;;
12271;SDS011;6198;51.446;6.698;2022-07-10T15:28:05;2.17;;;1.93;;